sensor_id;sensor_type;location;lat;lon;timestamp;P1;durP1;ratioP1;P2;durP2;ratioP2
11797;SDS011;5956;51.428;6.682;2022-08-20T00:01:05;16.95;;;14.77;;
11797;SDS011;5956;51.428;6.682;2022-08-20T00:03:33;16.05;;;14.32;;
11797;SDS011;5956;51.428;6.682;2022-08-20T00:06:03;16.35;;;14.65;;
11797;SDS011;5956;51.428;6.682;2022-08-20T00:08:32;15.25;;;13.45;;
11797;SDS011;5956;51.428;6.682;2022-08-20T00:10:59;16.98;;;15.02;;
11797;SDS011;5956;51.428;6.682;2022-08-20T00:13:28;15.85;;;14.38;;
11797;SDS011;5956;51.428;6.682;2022-08-20T00:15:57;16.67;;;14.77;;
11797;SDS011;5956;51.428;6.682;2022-08-20T00:18:25;16.48;;;14.43;;
11797;SDS011;5956;51.428;6.682;2022-08-20T00:20:52;16.10;;;14.45;;
11797;SDS011;5956;51.428;6.682;2022-08-20T00:23:20;16.25;;;14.68;;
11797;SDS011;5956;51.428;6.682;2022-08-20T00:25:47;17.15;;;15.35;;
11797;SDS011;5956;51.428;6.682;2022-08-20T00:28:15;16.23;;;14.60;;
11797;SDS011;5956;51.428;6.682;2022-08-20T00:30:43;15.68;;;14.07;;
11797;SDS011;5956;51.428;6.682;2022-08-20T00:33:12;16.33;;;14.75;;
11797;SDS011;5956;51.428;6.682;2022-08-20T00:35:43;17.80;;;15.85;;
11797;SDS011;5956;51.428;6.682;2022-08-20T00:38:11;17.05;;;15.32;;
11797;SDS011;5956;51.428;6.682;2022-08-20T00:40:40;16.15;;;14.45;;
11797;SDS011;5956;51.428;6.682;2022-08-20T00:43:23;16.17;;;14.48;;
11797;SDS011;5956;51.428;6.682;2022-08-20T00:45:54;20.02;;;14.80;;
11797;SDS011;5956;51.428;6.682;2022-08-20T00:48:24;16.48;;;14.82;;
11797;SDS011;5956;51.428;6.682;2022-08-20T00:50:56;16.20;;;14.70;;
11797;SDS011;5956;51.428;6.682;2022-08-20T00:53:28;15.57;;;14.00;;
11797;SDS011;5956;51.428;6.682;2022-08-20T00:55:55;16.42;;;14.73;;
11797;SDS011;5956;51.428;6.682;2022-08-20T00:58:22;16.98;;;14.68;;
11797;SDS011;5956;51.428;6.682;2022-08-20T01:00:50;15.93;;;14.45;;
11797;SDS011;5956;51.428;6.682;2022-08-20T01:03:17;16.42;;;14.80;;
11797;SDS011;5956;51.428;6.682;2022-08-20T01:05:47;15.93;;;14.48;;
11797;SDS011;5956;51.428;6.682;2022-08-20T01:08:16;15.45;;;14.00;;
11797;SDS011;5956;51.428;6.682;2022-08-20T01:10:46;15.90;;;14.30;;
11797;SDS011;5956;51.428;6.682;2022-08-20T01:13:17;15.18;;;13.77;;
11797;SDS011;5956;51.428;6.682;2022-08-20T01:15:46;15.93;;;14.52;;
11797;SDS011;5956;51.428;6.682;2022-08-20T01:18:15;17.00;;;15.27;;
11797;SDS011;5956;51.428;6.682;2022-08-20T01:20:46;16.45;;;14.95;;
11797;SDS011;5956;51.428;6.682;2022-08-20T01:23:17;15.60;;;14.10;;
11797;SDS011;5956;51.428;6.682;2022-08-20T01:25:56;15.38;;;13.88;;
11797;SDS011;5956;51.428;6.682;2022-08-20T01:28:29;16.08;;;14.55;;
11797;SDS011;5956;51.428;6.682;2022-08-20T01:31:00;14.95;;;13.45;;
11797;SDS011;5956;51.428;6.682;2022-08-20T01:33:27;15.45;;;14.15;;
11797;SDS011;5956;51.428;6.682;2022-08-20T01:35:54;16.73;;;15.13;;
11797;SDS011;5956;51.428;6.682;2022-08-20T01:38:21;14.95;;;13.50;;
11797;SDS011;5956;51.428;6.682;2022-08-20T01:40:53;16.67;;;15.18;;
11797;SDS011;5956;51.428;6.682;2022-08-20T01:43:26;16.13;;;14.75;;
11797;SDS011;5956;51.428;6.682;2022-08-20T01:45:53;16.33;;;14.82;;
11797;SDS011;5956;51.428;6.682;2022-08-20T01:48:20;16.75;;;15.18;;
11797;SDS011;5956;51.428;6.682;2022-08-20T01:50:50;16.75;;;15.25;;
11797;SDS011;5956;51.428;6.682;2022-08-20T01:53:24;17.02;;;15.52;;
11797;SDS011;5956;51.428;6.682;2022-08-20T01:55:59;15.32;;;13.93;;
11797;SDS011;5956;51.428;6.682;2022-08-20T01:58:26;16.25;;;14.75;;
11797;SDS011;5956;51.428;6.682;2022-08-20T02:00:54;16.88;;;15.18;;
11797;SDS011;5956;51.428;6.682;2022-08-20T02:03:21;16.38;;;14.85;;
11797;SDS011;5956;51.428;6.682;2022-08-20T02:05:47;16.02;;;14.57;;
11797;SDS011;5956;51.428;6.682;2022-08-20T02:08:14;15.57;;;14.18;;
11797;SDS011;5956;51.428;6.682;2022-08-20T02:10:41;16.27;;;14.68;;
11797;SDS011;5956;51.428;6.682;2022-08-20T02:13:11;16.33;;;14.70;;
11797;SDS011;5956;51.428;6.682;2022-08-20T02:15:38;16.75;;;15.25;;
11797;SDS011;5956;51.428;6.682;2022-08-20T02:18:06;15.55;;;14.25;;
11797;SDS011;5956;51.428;6.682;2022-08-20T02:20:35;16.10;;;14.55;;
11797;SDS011;5956;51.428;6.682;2022-08-20T02:23:03;15.10;;;13.70;;
11797;SDS011;5956;51.428;6.682;2022-08-20T02:25:32;15.60;;;14.13;;
11797;SDS011;5956;51.428;6.682;2022-08-20T02:28:02;14.88;;;13.68;;
11797;SDS011;5956;51.428;6.682;2022-08-20T02:30:34;14.98;;;13.45;;
11797;SDS011;5956;51.428;6.682;2022-08-20T02:33:04;14.50;;;13.10;;
11797;SDS011;5956;51.428;6.682;2022-08-20T02:35:33;14.13;;;12.88;;
11797;SDS011;5956;51.428;6.682;2022-08-20T02:38:01;14.38;;;12.95;;
11797;SDS011;5956;51.428;6.682;2022-08-20T02:40:28;14.52;;;13.20;;
11797;SDS011;5956;51.428;6.682;2022-08-20T02:42:55;14.10;;;12.93;;
11797;SDS011;5956;51.428;6.682;2022-08-20T02:45:23;14.35;;;13.00;;
11797;SDS011;5956;51.428;6.682;2022-08-20T02:47:52;13.68;;;12.55;;
11797;SDS011;5956;51.428;6.682;2022-08-20T02:50:21;14.35;;;13.15;;
11797;SDS011;5956;51.428;6.682;2022-08-20T02:52:49;15.15;;;13.75;;
11797;SDS011;5956;51.428;6.682;2022-08-20T02:55:16;14.55;;;13.25;;
11797;SDS011;5956;51.428;6.682;2022-08-20T02:57:43;14.82;;;13.50;;
11797;SDS011;5956;51.428;6.682;2022-08-20T03:00:11;14.13;;;12.93;;
11797;SDS011;5956;51.428;6.682;2022-08-20T03:02:41;14.18;;;12.98;;
11797;SDS011;5956;51.428;6.682;2022-08-20T03:05:09;13.80;;;12.38;;
11797;SDS011;5956;51.428;6.682;2022-08-20T03:07:41;14.93;;;13.63;;
11797;SDS011;5956;51.428;6.682;2022-08-20T03:10:08;15.23;;;13.63;;
11797;SDS011;5956;51.428;6.682;2022-08-20T03:12:36;14.13;;;12.82;;
11797;SDS011;5956;51.428;6.682;2022-08-20T03:15:04;15.43;;;14.07;;
11797;SDS011;5956;51.428;6.682;2022-08-20T03:17:32;14.88;;;13.57;;
11797;SDS011;5956;51.428;6.682;2022-08-20T03:19:59;15.02;;;13.65;;
11797;SDS011;5956;51.428;6.682;2022-08-20T03:22:27;15.93;;;14.43;;
11797;SDS011;5956;51.428;6.682;2022-08-20T03:24:54;15.95;;;14.45;;
11797;SDS011;5956;51.428;6.682;2022-08-20T03:27:21;16.13;;;14.52;;
11797;SDS011;5956;51.428;6.682;2022-08-20T03:29:48;15.63;;;14.18;;
11797;SDS011;5956;51.428;6.682;2022-08-20T03:32:15;16.85;;;15.30;;
11797;SDS011;5956;51.428;6.682;2022-08-20T03:34:42;17.25;;;15.48;;
11797;SDS011;5956;51.428;6.682;2022-08-20T03:37:08;16.90;;;15.40;;
11797;SDS011;5956;51.428;6.682;2022-08-20T03:39:37;16.13;;;14.65;;
11797;SDS011;5956;51.428;6.682;2022-08-20T03:42:04;17.00;;;15.40;;
11797;SDS011;5956;51.428;6.682;2022-08-20T03:44:32;16.65;;;15.05;;
11797;SDS011;5956;51.428;6.682;2022-08-20T03:47:01;18.08;;;16.25;;
11797;SDS011;5956;51.428;6.682;2022-08-20T03:49:32;16.52;;;15.02;;
11797;SDS011;5956;51.428;6.682;2022-08-20T03:51:59;15.88;;;14.45;;
11797;SDS011;5956;51.428;6.682;2022-08-20T03:54:26;15.85;;;14.48;;
11797;SDS011;5956;51.428;6.682;2022-08-20T03:56:54;16.75;;;15.15;;
11797;SDS011;5956;51.428;6.682;2022-08-20T03:59:21;18.67;;;16.95;;
11797;SDS011;5956;51.428;6.682;2022-08-20T04:01:48;17.92;;;16.20;;
11797;SDS011;5956;51.428;6.682;2022-08-20T04:04:16;17.75;;;15.95;;
11797;SDS011;5956;51.428;6.682;2022-08-20T04:06:43;17.30;;;15.60;;
11797;SDS011;5956;51.428;6.682;2022-08-20T04:09:11;19.02;;;17.23;;
11797;SDS011;5956;51.428;6.682;2022-08-20T04:11:38;19.75;;;17.80;;
11797;SDS011;5956;51.428;6.682;2022-08-20T04:14:07;20.00;;;17.85;;
11797;SDS011;5956;51.428;6.682;2022-08-20T04:16:34;17.55;;;16.00;;
11797;SDS011;5956;51.428;6.682;2022-08-20T04:19:01;18.05;;;16.27;;
11797;SDS011;5956;51.428;6.682;2022-08-20T04:21:29;17.45;;;15.93;;
11797;SDS011;5956;51.428;6.682;2022-08-20T04:23:56;17.15;;;15.57;;
11797;SDS011;5956;51.428;6.682;2022-08-20T04:26:23;18.27;;;16.58;;
11797;SDS011;5956;51.428;6.682;2022-08-20T04:28:50;18.10;;;16.48;;
11797;SDS011;5956;51.428;6.682;2022-08-20T04:31:21;18.75;;;16.85;;
11797;SDS011;5956;51.428;6.682;2022-08-20T04:33:49;19.05;;;17.20;;
11797;SDS011;5956;51.428;6.682;2022-08-20T04:36:16;18.83;;;17.08;;
11797;SDS011;5956;51.428;6.682;2022-08-20T04:38:43;18.60;;;16.90;;
11797;SDS011;5956;51.428;6.682;2022-08-20T04:41:09;20.05;;;18.25;;
11797;SDS011;5956;51.428;6.682;2022-08-20T04:43:35;19.27;;;17.55;;
11797;SDS011;5956;51.428;6.682;2022-08-20T04:46:03;19.13;;;17.38;;
11797;SDS011;5956;51.428;6.682;2022-08-20T04:48:35;19.30;;;17.55;;
11797;SDS011;5956;51.428;6.682;2022-08-20T04:51:04;20.17;;;18.30;;
11797;SDS011;5956;51.428;6.682;2022-08-20T04:53:31;20.33;;;18.38;;
11797;SDS011;5956;51.428;6.682;2022-08-20T04:55:59;18.52;;;16.90;;
11797;SDS011;5956;51.428;6.682;2022-08-20T04:58:27;19.38;;;17.30;;
11797;SDS011;5956;51.428;6.682;2022-08-20T05:00:56;19.70;;;17.15;;
11797;SDS011;5956;51.428;6.682;2022-08-20T05:03:24;19.88;;;17.80;;
11797;SDS011;5956;51.428;6.682;2022-08-20T05:05:53;19.15;;;17.35;;
11797;SDS011;5956;51.428;6.682;2022-08-20T05:08:21;19.67;;;17.98;;
11797;SDS011;5956;51.428;6.682;2022-08-20T05:10:49;20.92;;;18.75;;
11797;SDS011;5956;51.428;6.682;2022-08-20T05:13:16;20.15;;;18.23;;
11797;SDS011;5956;51.428;6.682;2022-08-20T05:15:43;20.67;;;18.70;;
11797;SDS011;5956;51.428;6.682;2022-08-20T05:18:12;19.20;;;17.33;;
11797;SDS011;5956;51.428;6.682;2022-08-20T05:20:42;18.85;;;17.05;;
11797;SDS011;5956;51.428;6.682;2022-08-20T05:23:11;20.98;;;18.73;;
11797;SDS011;5956;51.428;6.682;2022-08-20T05:25:40;19.67;;;17.67;;
11797;SDS011;5956;51.428;6.682;2022-08-20T05:28:08;22.40;;;19.17;;
11797;SDS011;5956;51.428;6.682;2022-08-20T05:30:37;19.17;;;17.38;;
11797;SDS011;5956;51.428;6.682;2022-08-20T05:33:05;19.73;;;17.92;;
11797;SDS011;5956;51.428;6.682;2022-08-20T05:35:34;20.00;;;18.17;;
11797;SDS011;5956;51.428;6.682;2022-08-20T05:38:03;20.00;;;18.13;;
11797;SDS011;5956;51.428;6.682;2022-08-20T05:40:32;18.98;;;16.75;;
11797;SDS011;5956;51.428;6.682;2022-08-20T05:42:59;19.52;;;17.48;;
11797;SDS011;5956;51.428;6.682;2022-08-20T05:45:28;20.83;;;18.73;;
11797;SDS011;5956;51.428;6.682;2022-08-20T05:47:55;20.42;;;18.55;;
11797;SDS011;5956;51.428;6.682;2022-08-20T05:50:22;20.83;;;18.80;;
11797;SDS011;5956;51.428;6.682;2022-08-20T05:52:49;21.00;;;18.75;;
11797;SDS011;5956;51.428;6.682;2022-08-20T05:55:16;22.75;;;19.40;;
11797;SDS011;5956;51.428;6.682;2022-08-20T05:57:44;21.65;;;19.45;;
11797;SDS011;5956;51.428;6.682;2022-08-20T06:00:12;21.85;;;19.83;;
11797;SDS011;5956;51.428;6.682;2022-08-20T06:02:42;22.48;;;20.38;;
11797;SDS011;5956;51.428;6.682;2022-08-20T06:05:22;22.30;;;20.00;;
11797;SDS011;5956;51.428;6.682;2022-08-20T06:07:48;21.63;;;19.58;;
11797;SDS011;5956;51.428;6.682;2022-08-20T06:10:14;22.92;;;20.73;;
11797;SDS011;5956;51.428;6.682;2022-08-20T06:12:39;21.65;;;19.35;;
11797;SDS011;5956;51.428;6.682;2022-08-20T06:15:10;22.20;;;20.02;;
11797;SDS011;5956;51.428;6.682;2022-08-20T06:17:38;22.95;;;20.70;;
11797;SDS011;5956;51.428;6.682;2022-08-20T06:20:06;21.92;;;19.73;;
11797;SDS011;5956;51.428;6.682;2022-08-20T06:22:34;23.02;;;20.85;;
11797;SDS011;5956;51.428;6.682;2022-08-20T06:25:01;14.68;;;13.38;;
11797;SDS011;5956;51.428;6.682;2022-08-20T06:27:28;11.85;;;10.82;;
11797;SDS011;5956;51.428;6.682;2022-08-20T06:29:55;16.20;;;14.60;;
11797;SDS011;5956;51.428;6.682;2022-08-20T06:32:23;16.25;;;13.43;;
11797;SDS011;5956;51.428;6.682;2022-08-20T06:34:50;19.15;;;17.25;;
11797;SDS011;5956;51.428;6.682;2022-08-20T06:37:19;21.85;;;19.63;;
11797;SDS011;5956;51.428;6.682;2022-08-20T06:39:51;19.80;;;17.70;;
11797;SDS011;5956;51.428;6.682;2022-08-20T06:42:19;20.83;;;18.92;;
11797;SDS011;5956;51.428;6.682;2022-08-20T06:44:49;20.35;;;18.45;;
11797;SDS011;5956;51.428;6.682;2022-08-20T06:47:19;17.58;;;16.02;;
11797;SDS011;5956;51.428;6.682;2022-08-20T06:49:51;18.77;;;16.83;;
11797;SDS011;5956;51.428;6.682;2022-08-20T06:52:17;17.17;;;15.48;;
11797;SDS011;5956;51.428;6.682;2022-08-20T06:54:44;17.58;;;15.98;;
11797;SDS011;5956;51.428;6.682;2022-08-20T06:57:11;22.38;;;20.10;;
11797;SDS011;5956;51.428;6.682;2022-08-20T06:59:39;16.90;;;15.25;;
11797;SDS011;5956;51.428;6.682;2022-08-20T07:02:06;15.05;;;13.55;;
11797;SDS011;5956;51.428;6.682;2022-08-20T07:04:33;18.60;;;16.90;;
11797;SDS011;5956;51.428;6.682;2022-08-20T07:07:04;15.82;;;14.30;;
11797;SDS011;5956;51.428;6.682;2022-08-20T07:09:32;15.02;;;13.70;;
11797;SDS011;5956;51.428;6.682;2022-08-20T07:11:59;16.92;;;15.43;;
11797;SDS011;5956;51.428;6.682;2022-08-20T07:14:26;14.18;;;12.88;;
11797;SDS011;5956;51.428;6.682;2022-08-20T07:16:52;16.92;;;15.32;;
11797;SDS011;5956;51.428;6.682;2022-08-20T07:19:19;17.10;;;15.50;;
11797;SDS011;5956;51.428;6.682;2022-08-20T07:21:46;15.82;;;14.30;;
11797;SDS011;5956;51.428;6.682;2022-08-20T07:24:16;18.75;;;16.75;;
11797;SDS011;5956;51.428;6.682;2022-08-20T07:26:43;20.15;;;18.45;;
11797;SDS011;5956;51.428;6.682;2022-08-20T07:29:10;26.48;;;24.02;;
11797;SDS011;5956;51.428;6.682;2022-08-20T07:31:36;21.55;;;19.65;;
11797;SDS011;5956;51.428;6.682;2022-08-20T07:34:17;28.73;;;26.23;;
11797;SDS011;5956;51.428;6.682;2022-08-20T07:36:43;29.70;;;26.80;;
11797;SDS011;5956;51.428;6.682;2022-08-20T07:39:08;31.58;;;28.55;;
11797;SDS011;5956;51.428;6.682;2022-08-20T07:41:37;33.22;;;30.02;;
11797;SDS011;5956;51.428;6.682;2022-08-20T07:44:03;35.60;;;32.15;;
11797;SDS011;5956;51.428;6.682;2022-08-20T07:46:30;34.70;;;31.13;;
11797;SDS011;5956;51.428;6.682;2022-08-20T07:48:57;36.38;;;32.70;;
11797;SDS011;5956;51.428;6.682;2022-08-20T07:51:25;36.13;;;32.53;;
11797;SDS011;5956;51.428;6.682;2022-08-20T07:53:52;36.40;;;32.78;;
11797;SDS011;5956;51.428;6.682;2022-08-20T07:56:22;35.92;;;32.53;;
11797;SDS011;5956;51.428;6.682;2022-08-20T07:58:51;34.33;;;30.75;;
11797;SDS011;5956;51.428;6.682;2022-08-20T08:01:21;33.88;;;30.50;;
11797;SDS011;5956;51.428;6.682;2022-08-20T08:03:50;34.00;;;30.50;;
11797;SDS011;5956;51.428;6.682;2022-08-20T08:06:17;29.35;;;26.45;;
11797;SDS011;5956;51.428;6.682;2022-08-20T08:08:46;32.58;;;29.50;;
11797;SDS011;5956;51.428;6.682;2022-08-20T08:11:13;28.55;;;25.95;;
11797;SDS011;5956;51.428;6.682;2022-08-20T08:13:40;29.10;;;26.27;;
11797;SDS011;5956;51.428;6.682;2022-08-20T08:16:09;30.73;;;27.48;;
11797;SDS011;5956;51.428;6.682;2022-08-20T08:18:37;30.77;;;27.48;;
11797;SDS011;5956;51.428;6.682;2022-08-20T08:21:06;27.92;;;25.15;;
11797;SDS011;5956;51.428;6.682;2022-08-20T08:23:37;28.92;;;25.90;;
11797;SDS011;5956;51.428;6.682;2022-08-20T08:26:04;29.58;;;26.38;;
11797;SDS011;5956;51.428;6.682;2022-08-20T08:28:31;29.85;;;26.85;;
11797;SDS011;5956;51.428;6.682;2022-08-20T08:30:58;30.40;;;26.85;;
11797;SDS011;5956;51.428;6.682;2022-08-20T08:33:27;28.80;;;25.70;;
11797;SDS011;5956;51.428;6.682;2022-08-20T08:35:57;32.70;;;27.40;;
11797;SDS011;5956;51.428;6.682;2022-08-20T08:38:26;27.67;;;24.77;;
11797;SDS011;5956;51.428;6.682;2022-08-20T08:40:54;30.80;;;26.60;;
11797;SDS011;5956;51.428;6.682;2022-08-20T08:43:23;28.70;;;25.52;;
11797;SDS011;5956;51.428;6.682;2022-08-20T08:45:55;29.40;;;26.42;;
11797;SDS011;5956;51.428;6.682;2022-08-20T08:48:29;28.05;;;25.20;;
11797;SDS011;5956;51.428;6.682;2022-08-20T08:50:57;28.75;;;25.73;;
11797;SDS011;5956;51.428;6.682;2022-08-20T08:53:27;27.10;;;24.35;;
11797;SDS011;5956;51.428;6.682;2022-08-20T08:55:57;26.05;;;23.38;;
11797;SDS011;5956;51.428;6.682;2022-08-20T08:58:25;25.50;;;22.73;;
11797;SDS011;5956;51.428;6.682;2022-08-20T09:00:52;24.60;;;22.00;;
11797;SDS011;5956;51.428;6.682;2022-08-20T09:03:21;23.75;;;20.67;;
11797;SDS011;5956;51.428;6.682;2022-08-20T09:05:53;23.88;;;21.02;;
11797;SDS011;5956;51.428;6.682;2022-08-20T09:08:23;23.23;;;20.73;;
11797;SDS011;5956;51.428;6.682;2022-08-20T09:10:52;23.33;;;20.92;;
11797;SDS011;5956;51.428;6.682;2022-08-20T09:13:19;22.88;;;20.58;;
11797;SDS011;5956;51.428;6.682;2022-08-20T09:15:46;25.05;;;22.58;;
11797;SDS011;5956;51.428;6.682;2022-08-20T09:18:13;22.80;;;20.55;;
11797;SDS011;5956;51.428;6.682;2022-08-20T09:20:40;22.08;;;19.85;;
11797;SDS011;5956;51.428;6.682;2022-08-20T09:23:08;23.83;;;21.42;;
11797;SDS011;5956;51.428;6.682;2022-08-20T09:25:34;23.95;;;21.35;;
11797;SDS011;5956;51.428;6.682;2022-08-20T09:28:02;22.98;;;20.65;;
11797;SDS011;5956;51.428;6.682;2022-08-20T09:30:29;22.35;;;19.45;;
11797;SDS011;5956;51.428;6.682;2022-08-20T09:32:57;23.58;;;20.98;;
11797;SDS011;5956;51.428;6.682;2022-08-20T09:35:24;23.08;;;20.45;;
11797;SDS011;5956;51.428;6.682;2022-08-20T09:37:51;26.95;;;23.85;;
11797;SDS011;5956;51.428;6.682;2022-08-20T09:40:20;25.17;;;20.60;;
11797;SDS011;5956;51.428;6.682;2022-08-20T09:42:47;21.90;;;19.73;;
11797;SDS011;5956;51.428;6.682;2022-08-20T09:45:15;23.00;;;19.08;;
11797;SDS011;5956;51.428;6.682;2022-08-20T09:47:43;22.02;;;19.73;;
11797;SDS011;5956;51.428;6.682;2022-08-20T09:50:10;20.77;;;18.63;;
11797;SDS011;5956;51.428;6.682;2022-08-20T09:52:38;25.00;;;19.98;;
11797;SDS011;5956;51.428;6.682;2022-08-20T09:55:12;24.05;;;20.05;;
11797;SDS011;5956;51.428;6.682;2022-08-20T09:57:44;22.60;;;18.75;;
11797;SDS011;5956;51.428;6.682;2022-08-20T10:00:11;24.40;;;20.83;;
11797;SDS011;5956;51.428;6.682;2022-08-20T10:02:38;22.58;;;20.25;;
11797;SDS011;5956;51.428;6.682;2022-08-20T10:05:05;24.48;;;19.98;;
11797;SDS011;5956;51.428;6.682;2022-08-20T10:07:33;20.50;;;15.00;;
11797;SDS011;5956;51.428;6.682;2022-08-20T10:10:00;21.42;;;19.17;;
11797;SDS011;5956;51.428;6.682;2022-08-20T10:12:27;22.80;;;19.20;;
11797;SDS011;5956;51.428;6.682;2022-08-20T10:14:55;21.85;;;19.58;;
11797;SDS011;5956;51.428;6.682;2022-08-20T10:17:22;19.15;;;16.02;;
11797;SDS011;5956;51.428;6.682;2022-08-20T10:19:49;22.10;;;19.52;;
11797;SDS011;5956;51.428;6.682;2022-08-20T10:22:16;20.65;;;17.77;;
11797;SDS011;5956;51.428;6.682;2022-08-20T10:24:42;21.92;;;18.88;;
11797;SDS011;5956;51.428;6.682;2022-08-20T10:27:09;26.00;;;19.38;;
11797;SDS011;5956;51.428;6.682;2022-08-20T10:29:36;21.73;;;19.30;;
11797;SDS011;5956;51.428;6.682;2022-08-20T10:32:08;22.52;;;19.90;;
11797;SDS011;5956;51.428;6.682;2022-08-20T10:34:36;23.30;;;19.35;;
11797;SDS011;5956;51.428;6.682;2022-08-20T10:37:04;20.85;;;18.63;;
11797;SDS011;5956;51.428;6.682;2022-08-20T10:39:32;21.08;;;17.77;;
11797;SDS011;5956;51.428;6.682;2022-08-20T10:41:59;22.75;;;19.55;;
11797;SDS011;5956;51.428;6.682;2022-08-20T10:44:26;21.67;;;16.52;;
11797;SDS011;5956;51.428;6.682;2022-08-20T10:46:53;19.35;;;17.40;;
11797;SDS011;5956;51.428;6.682;2022-08-20T10:49:21;20.23;;;17.83;;
11797;SDS011;5956;51.428;6.682;2022-08-20T10:51:48;18.17;;;15.73;;
11797;SDS011;5956;51.428;6.682;2022-08-20T10:54:15;18.98;;;17.17;;
11797;SDS011;5956;51.428;6.682;2022-08-20T10:56:42;22.13;;;19.80;;
11797;SDS011;5956;51.428;6.682;2022-08-20T10:59:08;19.15;;;17.13;;
11797;SDS011;5956;51.428;6.682;2022-08-20T11:01:35;19.30;;;17.35;;
11797;SDS011;5956;51.428;6.682;2022-08-20T11:04:02;21.27;;;19.17;;
11797;SDS011;5956;51.428;6.682;2022-08-20T11:06:31;24.45;;;20.17;;
11797;SDS011;5956;51.428;6.682;2022-08-20T11:08:58;19.30;;;17.40;;
11797;SDS011;5956;51.428;6.682;2022-08-20T11:11:25;22.67;;;20.42;;
11797;SDS011;5956;51.428;6.682;2022-08-20T11:13:52;20.17;;;17.85;;
11797;SDS011;5956;51.428;6.682;2022-08-20T11:16:19;27.05;;;24.25;;
11797;SDS011;5956;51.428;6.682;2022-08-20T11:18:45;21.90;;;19.90;;
11797;SDS011;5956;51.428;6.682;2022-08-20T11:21:12;21.83;;;18.73;;
11797;SDS011;5956;51.428;6.682;2022-08-20T11:23:40;19.42;;;17.38;;
11797;SDS011;5956;51.428;6.682;2022-08-20T11:26:08;21.33;;;19.13;;
11797;SDS011;5956;51.428;6.682;2022-08-20T11:28:35;18.52;;;16.73;;
11797;SDS011;5956;51.428;6.682;2022-08-20T11:31:05;19.77;;;17.77;;
11797;SDS011;5956;51.428;6.682;2022-08-20T11:33:32;20.95;;;18.95;;
11797;SDS011;5956;51.428;6.682;2022-08-20T11:35:59;20.30;;;18.20;;
11797;SDS011;5956;51.428;6.682;2022-08-20T11:38:26;20.73;;;18.70;;
11797;SDS011;5956;51.428;6.682;2022-08-20T11:40:54;16.98;;;15.32;;
11797;SDS011;5956;51.428;6.682;2022-08-20T11:43:20;18.58;;;16.45;;
11797;SDS011;5956;51.428;6.682;2022-08-20T11:45:49;18.20;;;16.50;;
11797;SDS011;5956;51.428;6.682;2022-08-20T11:48:18;18.77;;;16.88;;
11797;SDS011;5956;51.428;6.682;2022-08-20T11:50:45;19.58;;;17.55;;
11797;SDS011;5956;51.428;6.682;2022-08-20T11:53:13;17.60;;;15.90;;
11797;SDS011;5956;51.428;6.682;2022-08-20T11:55:39;18.77;;;16.45;;
11797;SDS011;5956;51.428;6.682;2022-08-20T11:58:08;18.65;;;15.77;;
11797;SDS011;5956;51.428;6.682;2022-08-20T12:00:36;18.38;;;16.20;;
11797;SDS011;5956;51.428;6.682;2022-08-20T12:03:03;16.92;;;15.10;;
11797;SDS011;5956;51.428;6.682;2022-08-20T12:05:31;16.75;;;14.73;;
11797;SDS011;5956;51.428;6.682;2022-08-20T12:07:59;17.55;;;15.05;;
11797;SDS011;5956;51.428;6.682;2022-08-20T12:10:26;17.33;;;14.90;;
11797;SDS011;5956;51.428;6.682;2022-08-20T12:12:53;20.20;;;15.20;;
11797;SDS011;5956;51.428;6.682;2022-08-20T12:15:21;16.38;;;13.88;;
11797;SDS011;5956;51.428;6.682;2022-08-20T12:17:48;16.00;;;14.32;;
11797;SDS011;5956;51.428;6.682;2022-08-20T12:20:14;15.95;;;13.43;;
11797;SDS011;5956;51.428;6.682;2022-08-20T12:22:41;14.30;;;11.43;;
11797;SDS011;5956;51.428;6.682;2022-08-20T12:25:09;14.50;;;12.63;;
11797;SDS011;5956;51.428;6.682;2022-08-20T12:27:36;14.27;;;12.68;;
11797;SDS011;5956;51.428;6.682;2022-08-20T12:30:04;15.13;;;13.35;;
11797;SDS011;5956;51.428;6.682;2022-08-20T12:32:34;15.73;;;13.20;;
11797;SDS011;5956;51.428;6.682;2022-08-20T12:35:01;14.65;;;11.57;;
11797;SDS011;5956;51.428;6.682;2022-08-20T12:37:29;13.57;;;11.82;;
11797;SDS011;5956;51.428;6.682;2022-08-20T12:39:58;23.58;;;21.05;;
11797;SDS011;5956;51.428;6.682;2022-08-20T12:42:26;13.15;;;11.70;;
11797;SDS011;5956;51.428;6.682;2022-08-20T12:44:54;12.70;;;10.80;;
11797;SDS011;5956;51.428;6.682;2022-08-20T12:47:21;13.70;;;11.15;;
11797;SDS011;5956;51.428;6.682;2022-08-20T12:49:52;12.13;;;10.80;;
11797;SDS011;5956;51.428;6.682;2022-08-20T12:52:21;13.63;;;12.05;;
11797;SDS011;5956;51.428;6.682;2022-08-20T12:54:48;15.55;;;11.32;;
11797;SDS011;5956;51.428;6.682;2022-08-20T12:57:21;11.85;;;10.45;;
11797;SDS011;5956;51.428;6.682;2022-08-20T12:59:49;13.45;;;9.68;;
11797;SDS011;5956;51.428;6.682;2022-08-20T13:02:15;8.25;;;7.45;;
11797;SDS011;5956;51.428;6.682;2022-08-20T13:04:42;8.55;;;6.18;;
11797;SDS011;5956;51.428;6.682;2022-08-20T13:07:11;9.13;;;6.93;;
11797;SDS011;5956;51.428;6.682;2022-08-20T13:09:39;9.00;;;6.72;;
11797;SDS011;5956;51.428;6.682;2022-08-20T13:12:06;9.13;;;7.20;;
11797;SDS011;5956;51.428;6.682;2022-08-20T13:14:33;6.93;;;5.93;;
11797;SDS011;5956;51.428;6.682;2022-08-20T13:17:00;10.02;;;7.57;;
11797;SDS011;5956;51.428;6.682;2022-08-20T13:19:28;9.63;;;7.82;;
11797;SDS011;5956;51.428;6.682;2022-08-20T13:21:55;7.57;;;5.70;;
11797;SDS011;5956;51.428;6.682;2022-08-20T13:24:24;8.70;;;6.13;;
11797;SDS011;5956;51.428;6.682;2022-08-20T13:26:51;8.18;;;5.43;;
11797;SDS011;5956;51.428;6.682;2022-08-20T13:29:18;9.15;;;5.60;;
11797;SDS011;5956;51.428;6.682;2022-08-20T13:31:45;9.18;;;5.10;;
11797;SDS011;5956;51.428;6.682;2022-08-20T13:34:12;7.78;;;4.68;;
11797;SDS011;5956;51.428;6.682;2022-08-20T13:36:39;8.93;;;5.00;;
11797;SDS011;5956;51.428;6.682;2022-08-20T13:39:06;7.25;;;4.28;;
11797;SDS011;5956;51.428;6.682;2022-08-20T13:41:34;9.88;;;4.85;;
11797;SDS011;5956;51.428;6.682;2022-08-20T13:44:02;6.57;;;3.92;;
11797;SDS011;5956;51.428;6.682;2022-08-20T13:46:29;6.30;;;3.85;;
11797;SDS011;5956;51.428;6.682;2022-08-20T13:48:55;6.20;;;3.83;;
11797;SDS011;5956;51.428;6.682;2022-08-20T13:51:22;6.28;;;4.03;;
11797;SDS011;5956;51.428;6.682;2022-08-20T13:53:49;7.18;;;3.78;;
11797;SDS011;5956;51.428;6.682;2022-08-20T13:56:16;6.45;;;3.58;;
11797;SDS011;5956;51.428;6.682;2022-08-20T13:58:44;6.07;;;3.33;;
11797;SDS011;5956;51.428;6.682;2022-08-20T14:01:11;7.05;;;3.25;;
11797;SDS011;5956;51.428;6.682;2022-08-20T14:03:38;8.23;;;3.60;;
11797;SDS011;5956;51.428;6.682;2022-08-20T14:06:06;8.27;;;3.47;;
11797;SDS011;5956;51.428;6.682;2022-08-20T14:08:34;4.53;;;3.15;;
11797;SDS011;5956;51.428;6.682;2022-08-20T14:11:02;4.90;;;3.22;;
11797;SDS011;5956;51.428;6.682;2022-08-20T14:13:29;4.82;;;3.38;;
11797;SDS011;5956;51.428;6.682;2022-08-20T14:15:57;7.30;;;4.18;;
11797;SDS011;5956;51.428;6.682;2022-08-20T14:18:25;6.20;;;3.50;;
11797;SDS011;5956;51.428;6.682;2022-08-20T14:20:51;6.65;;;2.88;;
11797;SDS011;5956;51.428;6.682;2022-08-20T14:23:18;8.02;;;3.65;;
11797;SDS011;5956;51.428;6.682;2022-08-20T14:25:45;4.47;;;2.90;;
11797;SDS011;5956;51.428;6.682;2022-08-20T14:28:14;9.00;;;3.20;;
11797;SDS011;5956;51.428;6.682;2022-08-20T14:30:43;6.15;;;3.17;;
11797;SDS011;5956;51.428;6.682;2022-08-20T14:33:11;5.53;;;2.85;;
11797;SDS011;5956;51.428;6.682;2022-08-20T14:35:38;4.57;;;2.72;;
11797;SDS011;5956;51.428;6.682;2022-08-20T14:38:05;5.72;;;3.30;;
11797;SDS011;5956;51.428;6.682;2022-08-20T14:40:33;7.18;;;3.17;;
11797;SDS011;5956;51.428;6.682;2022-08-20T14:43:01;6.40;;;3.63;;